Time;durP1;ratioP1;P1;durP2;ratioP2;P2;SDS_P1;SDS_P2;PMS_P1;PMS_P2;Temp;Humidity;BMP_temperature;BMP_pressure;BME280_temperature;BME280_humidity;BME280_pressure;Samples;Min_cycle;Max_cycle;Signal;HPM_P1;HPM_P2
2023/06/12 00:01:24;;;;;;;5.78;5.30;;;20.10;99.90;;;;;;5020004;28;20060;-78
2023/06/12 00:03:55;;;;;;;6.70;6.10;;;20.00;99.90;;;;;;5019654;28;20130;-79
2023/06/12 00:06:22;;;;;;;6.68;6.07;;;20.00;99.90;;;;;;5019546;28;20056;-78
2023/06/12 00:08:49;;;;;;;6.82;6.25;;;19.90;99.90;;;;;;5002586;28;20091;-79
2023/06/12 00:11:16;;;;;;;6.90;6.30;;;19.90;99.90;;;;;;5002231;28;20548;-78
2023/06/12 00:13:47;;;;;;;6.72;6.22;;;19.80;99.90;;;;;;5020429;28;20053;-79
2023/06/12 00:16:16;;;;;;;6.80;6.22;;;19.80;99.90;;;;;;5003759;28;20049;-78
2023/06/12 00:18:43;;;;;;;6.07;5.57;;;19.80;99.90;;;;;;5002673;28;20049;-79
2023/06/12 00:21:10;;;;;;;6.85;6.25;;;19.80;99.90;;;;;;5002477;28;20487;-79
2023/06/12 00:23:38;;;;;;;5.93;5.43;;;19.70;99.90;;;;;;5002560;28;20053;-79
2023/06/12 00:26:05;;;;;;;6.70;6.13;;;19.60;99.90;;;;;;5003207;28;20645;-79
2023/06/12 00:28:32;;;;;;;6.35;5.85;;;19.50;99.90;;;;;;4986440;28;20600;-79
2023/06/12 00:30:59;;;;;;;6.45;5.85;;;19.40;99.90;;;;;;5003331;28;20195;-79
2023/06/12 00:33:25;;;;;;;6.57;6.00;;;19.40;99.90;;;;;;5020137;28;20853;-79
2023/06/12 00:35:52;;;;;;;6.80;6.20;;;19.40;99.90;;;;;;5018362;28;20053;-79
2023/06/12 00:38:20;;;;;;;6.28;5.68;;;19.50;99.90;;;;;;5018698;28;20072;-79
2023/06/12 00:40:47;;;;;;;6.97;6.38;;;19.40;99.90;;;;;;5019143;28;20057;-79
2023/06/12 00:43:15;;;;;;;6.50;5.93;;;19.40;99.90;;;;;;5002931;28;20053;-79
2023/06/12 00:45:41;;;;;;;6.22;5.65;;;19.40;99.90;;;;;;5021953;28;20132;-79
2023/06/12 00:48:08;;;;;;;5.88;5.38;;;19.30;99.90;;;;;;5023998;28;20056;-79
2023/06/12 00:50:35;;;;;;;6.55;5.97;;;19.30;99.90;;;;;;5022169;28;20493;-79
2023/06/12 00:53:02;;;;;;;5.35;4.93;;;19.30;99.90;;;;;;5022693;28;20046;-79
2023/06/12 01:00:38;;;;;;;5.95;5.40;;;19.20;99.90;;;;;;4988431;28;20073;-92
2023/06/12 01:03:07;;;;;;;5.53;4.97;;;19.20;99.90;;;;;;4988276;28;20054;-93
2023/06/12 01:05:40;;;;;;;6.22;5.65;;;19.20;99.90;;;;;;4972092;28;20053;-91
2023/06/12 01:08:28;;;;;;;6.28;5.40;;;19.20;99.90;;;;;;4957531;28;20050;-91
2023/06/12 01:11:11;;;;;;;5.28;4.78;;;19.10;99.90;;;;;;4988607;28;20643;-92
2023/06/12 01:13:38;;;;;;;5.88;5.38;;;19.20;99.90;;;;;;4971322;28;20078;-84
2023/06/12 01:16:05;;;;;;;6.75;6.05;;;19.10;99.90;;;;;;4956455;28;20161;-91
2023/06/12 01:18:33;;;;;;;6.57;5.97;;;19.10;99.90;;;;;;4961145;28;20046;-90
2023/06/12 01:21:01;;;;;;;6.28;5.68;;;19.10;99.90;;;;;;4961412;28;20054;-91
2023/06/12 01:23:37;;;;;;;5.95;5.45;;;19.00;99.90;;;;;;4964246;28;20054;-89
2023/06/12 01:26:39;;;;;;;6.13;5.53;;;19.00;99.90;;;;;;4993385;28;20108;-89
2023/06/12 01:29:36;;;;;;;5.32;4.82;;;18.90;99.90;;;;;;4972657;28;20046;-83
2023/06/12 01:32:03;;;;;;;6.53;5.50;;;18.90;99.90;;;;;;5002607;23;20512;-79
2023/06/12 01:34:32;;;;;;;6.15;5.60;;;19.00;99.90;;;;;;4989246;28;20478;-78
2023/06/12 01:37:05;;;;;;;6.15;5.55;;;18.90;99.90;;;;;;5006563;28;20137;-79
2023/06/12 01:39:35;;;;;;;5.55;5.05;;;18.90;99.90;;;;;;5006032;28;20060;-79
2023/06/12 01:42:03;;;;;;;6.40;5.80;;;18.80;99.90;;;;;;5006814;28;20108;-79
2023/06/12 01:44:32;;;;;;;6.93;6.32;;;18.80;99.90;;;;;;5005841;28;20594;-78
2023/06/12 01:46:59;;;;;;;6.65;6.15;;;18.80;99.90;;;;;;5006411;28;20096;-78
2023/06/12 01:49:26;;;;;;;6.55;5.95;;;18.80;99.90;;;;;;5005672;28;20190;-78
2023/06/12 01:51:53;;;;;;;5.82;5.32;;;18.80;99.90;;;;;;5006259;28;20565;-78
2023/06/12 01:54:20;;;;;;;6.32;5.72;;;18.70;99.90;;;;;;4989010;28;20385;-79
2023/06/12 01:56:47;;;;;;;6.20;5.63;;;18.80;99.90;;;;;;5006477;28;20101;-78
2023/06/12 01:59:14;;;;;;;6.60;6.00;;;18.70;99.90;;;;;;5006858;28;20104;-79
2023/06/12 02:01:41;;;;;;;6.05;5.45;;;18.70;99.90;;;;;;5007641;28;20070;-79
2023/06/12 02:04:08;;;;;;;6.32;5.75;;;18.70;99.90;;;;;;5005094;28;20056;-79
2023/06/12 02:06:35;;;;;;;7.10;6.40;;;18.70;99.90;;;;;;5006133;28;20046;-79
2023/06/12 02:09:01;;;;;;;6.95;6.35;;;18.70;99.90;;;;;;5005343;28;20078;-79
2023/06/12 02:11:28;;;;;;;7.22;6.55;;;18.60;99.90;;;;;;5004749;28;20058;-79
2023/06/12 02:13:55;;;;;;;6.35;5.78;;;18.50;99.90;;;;;;5005432;28;20074;-79
2023/06/12 02:16:22;;;;;;;7.65;6.95;;;18.50;99.90;;;;;;5006180;28;20456;-79
2023/06/12 02:18:49;;;;;;;7.22;6.63;;;18.40;99.90;;;;;;5006696;28;20539;-78
2023/06/12 02:21:15;;;;;;;7.05;6.43;;;18.30;99.90;;;;;;5006189;28;20054;-78
2023/06/12 02:23:42;;;;;;;7.90;7.10;;;18.20;99.90;;;;;;5006316;28;20108;-78
2023/06/12 02:26:09;;;;;;;8.40;7.70;;;18.20;99.90;;;;;;5006094;28;20200;-78
2023/06/12 02:28:36;;;;;;;7.20;6.60;;;18.30;99.90;;;;;;5005489;28;20650;-80
2023/06/12 02:31:04;;;;;;;6.75;6.15;;;18.30;99.90;;;;;;5006749;28;20053;-80
2023/06/12 02:33:31;;;;;;;7.82;7.13;;;18.40;99.90;;;;;;5006783;28;20461;-80
2023/06/12 02:35:58;;;;;;;6.88;6.28;;;18.40;99.90;;;;;;5005651;28;20148;-78
2023/06/12 02:38:26;;;;;;;7.55;6.85;;;18.50;99.90;;;;;;5005374;28;20073;-77
2023/06/12 02:40:53;;;;;;;6.95;6.35;;;18.40;99.90;;;;;;5005495;28;20053;-78
2023/06/12 02:43:19;;;;;;;7.35;6.68;;;18.50;99.90;;;;;;5006907;28;20069;-78
2023/06/12 02:45:46;;;;;;;7.30;6.65;;;18.50;99.90;;;;;;4988925;28;20065;-78
2023/06/12 02:48:13;;;;;;;7.95;7.25;;;18.40;99.90;;;;;;4989226;28;20511;-79
2023/06/12 02:50:40;;;;;;;7.15;6.50;;;18.40;99.90;;;;;;5004203;28;20054;-79
2023/06/12 02:53:07;;;;;;;7.13;6.53;;;18.30;99.90;;;;;;4988420;28;20046;-79
2023/06/12 02:55:39;;;;;;;7.25;6.65;;;18.40;99.90;;;;;;4988229;28;20054;-79
2023/06/12 02:58:07;;;;;;;6.50;5.90;;;18.40;99.90;;;;;;4989402;28;20124;-79
2023/06/12 03:00:34;;;;;;;7.18;6.57;;;18.50;99.90;;;;;;5005157;28;20385;-78
2023/06/12 03:03:01;;;;;;;6.20;5.70;;;18.50;99.90;;;;;;5005085;28;20054;-78
2023/06/12 03:05:33;;;;;;;7.15;6.53;;;18.50;99.90;;;;;;4987472;28;20493;-78
2023/06/12 03:08:02;;;;;;;6.72;6.13;;;18.50;99.90;;;;;;5004917;28;20054;-78
2023/06/12 03:10:29;;;;;;;7.10;6.50;;;18.60;99.90;;;;;;5005705;28;20104;-78
2023/06/12 03:12:56;;;;;;;6.78;6.18;;;18.60;99.90;;;;;;5006177;28;20164;-78
2023/06/12 03:15:24;;;;;;;7.20;6.60;;;18.60;99.90;;;;;;5004426;28;20053;-79
2023/06/12 03:17:50;;;;;;;6.47;5.88;;;18.60;99.90;;;;;;5004710;28;20050;-79
2023/06/12 03:20:18;;;;;;;6.70;6.10;;;18.60;99.90;;;;;;5003202;28;20071;-79
2023/06/12 03:22:44;;;;;;;7.10;6.50;;;18.60;99.90;;;;;;5005588;28;20058;-79
2023/06/12 03:25:11;;;;;;;6.60;6.00;;;18.70;99.90;;;;;;5004997;28;20058;-79
2023/06/12 03:27:38;;;;;;;6.97;6.38;;;18.70;99.90;;;;;;5004724;28;20477;-79
2023/06/12 03:30:05;;;;;;;7.32;6.63;;;18.70;99.90;;;;;;5003809;28;20105;-79
2023/06/12 03:32:32;;;;;;;6.57;5.97;;;18.70;99.90;;;;;;5003925;28;20116;-78
2023/06/12 03:34:59;;;;;;;6.63;6.03;;;18.70;99.90;;;;;;5002940;28;20054;-79
2023/06/12 03:37:28;;;;;;;6.63;6.03;;;18.60;99.90;;;;;;5004578;28;20053;-79
2023/06/12 03:39:55;;;;;;;5.90;5.40;;;18.60;99.90;;;;;;5003561;28;20050;-79
2023/06/12 03:42:21;;;;;;;6.95;6.32;;;18.70;99.90;;;;;;5006135;28;20054;-79
2023/06/12 03:44:48;;;;;;;7.00;6.40;;;18.70;99.90;;;;;;4987150;28;20054;-79
2023/06/12 03:47:15;;;;;;;6.97;6.35;;;18.70;99.90;;;;;;5004263;28;20050;-79
2023/06/12 03:49:42;;;;;;;5.97;5.38;;;18.70;99.90;;;;;;5002945;28;20073;-79
2023/06/12 03:52:09;;;;;;;6.63;6.03;;;18.70;99.90;;;;;;5004322;28;20358;-79
2023/06/12 03:54:36;;;;;;;6.28;5.78;;;18.80;99.90;;;;;;5003373;28;20560;-79
2023/06/12 03:57:03;;;;;;;6.60;6.00;;;18.80;99.90;;;;;;5004593;28;20075;-79
2023/06/12 03:59:30;;;;;;;6.72;6.13;;;18.70;99.90;;;;;;5004960;28;20455;-79
2023/06/12 04:01:58;;;;;;;5.93;5.43;;;18.80;99.90;;;;;;5005683;28;20440;-78
2023/06/12 04:04:25;;;;;;;5.78;5.28;;;18.80;99.90;;;;;;5004232;28;20081;-79
2023/06/12 04:06:53;;;;;;;5.97;5.40;;;18.90;99.90;;;;;;5004851;28;20052;-79
2023/06/12 04:09:20;;;;;;;7.28;5.82;;;18.90;99.90;;;;;;5003054;28;20488;-79
2023/06/12 04:11:46;;;;;;;6.10;5.53;;;18.90;99.90;;;;;;5004942;28;20050;-78
2023/06/12 04:14:13;;;;;;;6.32;5.72;;;18.80;99.90;;;;;;5004929;28;20084;-78
2023/06/12 04:16:40;;;;;;;6.53;5.93;;;18.90;99.90;;;;;;5003824;28;20049;-78
2023/06/12 04:19:07;;;;;;;6.13;5.63;;;18.80;99.90;;;;;;4982312;28;20062;-78
2023/06/12 04:21:35;;;;;;;7.68;6.97;;;18.70;99.90;;;;;;4985442;28;20569;-79
2023/06/12 04:24:03;;;;;;;6.32;5.72;;;18.70;99.90;;;;;;4974418;28;20096;-79
2023/06/12 04:26:31;;;;;;;7.25;6.57;;;18.70;99.90;;;;;;5003224;28;20050;-79
2023/06/12 04:29:01;;;;;;;6.88;6.28;;;18.70;99.90;;;;;;5003433;28;20054;-79
2023/06/12 04:31:28;;;;;;;5.82;5.30;;;18.60;99.90;;;;;;5003440;28;20057;-78
2023/06/12 04:33:55;;;;;;;5.82;5.32;;;18.70;99.90;;;;;;5002927;28;20547;-79
2023/06/12 04:36:22;;;;;;;5.63;5.10;;;18.80;99.90;;;;;;4987065;28;20084;-79
2023/06/12 04:38:50;;;;;;;6.35;5.78;;;18.90;99.90;;;;;;5003131;28;20054;-79
2023/06/12 04:41:19;;;;;;;5.63;5.18;;;18.90;99.90;;;;;;4985980;28;20534;-78
2023/06/12 04:43:49;;;;;;;5.72;5.22;;;19.00;99.90;;;;;;5000637;28;20050;-79
2023/06/12 04:46:19;;;;;;;6.18;5.57;;;19.10;99.90;;;;;;4968071;28;20104;-79
2023/06/12 04:48:45;;;;;;;4.97;4.50;;;19.10;99.90;;;;;;4984627;28;20050;-79
2023/06/12 04:51:13;;;;;;;6.45;5.90;;;19.10;99.90;;;;;;4998566;28;20104;-79
2023/06/12 04:53:47;;;;;;;6.80;6.20;;;19.10;99.90;;;;;;4998638;28;20140;-79
2023/06/12 04:56:20;;;;;;;6.63;6.03;;;19.10;99.90;;;;;;5001345;28;20456;-78
2023/06/12 04:58:47;;;;;;;6.70;6.10;;;19.10;99.90;;;;;;5002190;28;20054;-79
2023/06/12 05:01:14;;;;;;;5.80;5.28;;;19.10;99.90;;;;;;4995041;28;20041;-79
2023/06/12 05:03:41;;;;;;;7.20;6.60;;;19.20;99.90;;;;;;4991635;28;20045;-79
2023/06/12 05:06:08;;;;;;;6.30;5.78;;;19.20;99.90;;;;;;4981574;28;20046;-79
2023/06/12 05:08:36;;;;;;;6.68;6.03;;;19.30;99.90;;;;;;4998596;28;20104;-79
2023/06/12 05:11:03;;;;;;;7.20;6.13;;;19.30;99.90;;;;;;4998513;28;20203;-79
2023/06/12 05:13:30;;;;;;;6.93;6.32;;;19.40;99.90;;;;;;4999482;28;20054;-79
2023/06/12 05:15:57;;;;;;;6.47;5.93;;;19.40;99.90;;;;;;4998885;28;20053;-78
2023/06/12 05:18:24;;;;;;;6.35;5.85;;;19.50;99.90;;;;;;4998130;28;20124;-80
2023/06/12 05:20:51;;;;;;;5.65;5.15;;;19.60;99.90;;;;;;4996604;28;20107;-79
2023/06/12 05:23:17;;;;;;;6.60;6.00;;;19.70;99.90;;;;;;4994102;28;20046;-79
2023/06/12 05:25:44;;;;;;;6.35;5.85;;;19.70;99.90;;;;;;4997927;28;20058;-79
2023/06/12 05:28:11;;;;;;;6.65;5.78;;;19.70;99.90;;;;;;4994315;28;20845;-79
2023/06/12 05:30:38;;;;;;;6.47;5.90;;;19.80;99.90;;;;;;4984050;28;20088;-80
2023/06/12 05:33:05;;;;;;;6.82;6.22;;;19.80;99.90;;;;;;5001096;28;20112;-79
2023/06/12 05:35:33;;;;;;;7.13;6.53;;;19.90;99.90;;;;;;5000673;28;20057;-80
2023/06/12 05:38:00;;;;;;;6.47;5.88;;;19.90;99.90;;;;;;5002784;28;20856;-80
2023/06/12 05:40:26;;;;;;;6.88;6.28;;;20.00;99.90;;;;;;4999752;28;20050;-80
2023/06/12 05:42:54;;;;;;;6.78;6.18;;;20.00;99.90;;;;;;5001731;28;20046;-80
2023/06/12 05:45:21;;;;;;;6.90;6.30;;;20.10;99.90;;;;;;5002142;28;20508;-80
2023/06/12 05:47:48;;;;;;;7.57;6.88;;;20.10;99.90;;;;;;5001829;28;20053;-80
2023/06/12 05:50:17;;;;;;;6.88;6.28;;;20.20;99.90;;;;;;5001752;28;20388;-80
2023/06/12 05:52:44;;;;;;;6.40;5.90;;;20.20;99.90;;;;;;5002978;28;20519;-80
2023/06/12 05:55:11;;;;;;;5.90;5.43;;;20.30;99.90;;;;;;5002210;28;20089;-80
2023/06/12 05:57:38;;;;;;;6.20;5.70;;;20.50;99.90;;;;;;5001743;28;20046;-80
2023/06/12 06:00:06;;;;;;;6.25;5.68;;;20.50;99.90;;;;;;4996850;28;20053;-79
2023/06/12 06:02:33;;;;;;;7.45;6.85;;;20.60;99.90;;;;;;5014162;28;20149;-80
2023/06/12 06:05:00;;;;;;;7.70;7.05;;;20.60;99.90;;;;;;4998115;28;20046;-80
2023/06/12 06:07:28;;;;;;;7.38;6.68;;;20.60;99.90;;;;;;4994423;28;20049;-80
2023/06/12 06:09:55;;;;;;;10.50;9.60;;;20.70;99.90;;;;;;5019977;28;20460;-80
2023/06/12 06:12:21;;;;;;;9.95;9.15;;;20.70;99.90;;;;;;5010157;28;20092;-79
2023/06/12 06:14:48;;;;;;;8.57;7.78;;;20.70;99.90;;;;;;5003355;28;20068;-80
2023/06/12 06:17:16;;;;;;;7.45;6.75;;;20.80;99.90;;;;;;5004504;28;20130;-81
2023/06/12 06:19:44;;;;;;;7.82;7.13;;;20.90;99.90;;;;;;4994994;28;20602;-79
2023/06/12 06:22:12;;;;;;;7.53;6.82;;;21.00;99.90;;;;;;5002413;28;20058;-80
2023/06/12 06:24:38;;;;;;;7.50;6.70;;;21.10;99.90;;;;;;5000422;28;20045;-79
2023/06/12 06:27:06;;;;;;;7.93;7.15;;;21.20;99.90;;;;;;5001456;28;20153;-79
2023/06/12 06:29:33;;;;;;;6.68;6.13;;;21.20;99.90;;;;;;4984380;28;20505;-79
2023/06/12 06:32:00;;;;;;;6.85;6.15;;;21.30;99.90;;;;;;5001598;28;20096;-79
2023/06/12 06:34:27;;;;;;;6.20;5.70;;;21.30;99.90;;;;;;4983655;28;20561;-79
2023/06/12 06:36:56;;;;;;;6.38;5.78;;;21.40;99.90;;;;;;4985157;28;20053;-79
2023/06/12 06:39:22;;;;;;;7.07;6.45;;;21.40;99.90;;;;;;4984514;28;20046;-79
2023/06/12 06:41:49;;;;;;;6.88;6.28;;;21.40;99.90;;;;;;5002225;28;20400;-78
2023/06/12 06:44:16;;;;;;;6.53;5.93;;;21.50;99.90;;;;;;5000263;28;20136;-79
2023/06/12 06:46:43;;;;;;;7.28;6.68;;;21.50;99.90;;;;;;5000905;28;20050;-80
2023/06/12 06:49:10;;;;;;;6.57;6.03;;;21.50;99.90;;;;;;4984302;28;20718;-79
2023/06/12 06:51:37;;;;;;;6.45;5.85;;;21.50;99.90;;;;;;4984785;28;20058;-79
2023/06/12 06:54:03;;;;;;;7.30;6.70;;;21.50;99.90;;;;;;4983743;28;20041;-80
2023/06/12 06:56:30;;;;;;;6.88;6.28;;;21.60;99.90;;;;;;4968259;28;20076;-80
2023/06/12 06:58:57;;;;;;;7.45;6.80;;;21.50;99.90;;;;;;5000222;28;20061;-80
2023/06/12 07:01:24;;;;;;;5.90;5.40;;;21.50;99.90;;;;;;4968861;28;20054;-79
2023/06/12 07:03:51;;;;;;;6.18;5.63;;;21.60;99.90;;;;;;4983916;28;20054;-79
2023/06/12 07:06:18;;;;;;;6.82;6.20;;;21.60;99.90;;;;;;4983988;28;20053;-80
2023/06/12 07:08:45;;;;;;;6.50;5.90;;;21.70;99.90;;;;;;4984062;28;20072;-79
2023/06/12 07:11:12;;;;;;;6.75;6.15;;;21.70;99.90;;;;;;5001640;28;20108;-79
2023/06/12 07:13:40;;;;;;;6.15;5.65;;;21.80;99.90;;;;;;5001987;28;20167;-79
2023/06/12 07:16:07;;;;;;;6.18;5.57;;;21.90;99.90;;;;;;5000282;28;20072;-80
2023/06/12 07:18:33;;;;;;;6.10;5.60;;;21.90;99.90;;;;;;5000182;28;20464;-80
2023/06/12 07:21:00;;;;;;;5.65;5.18;;;21.90;99.90;;;;;;4999963;28;20145;-78
2023/06/12 07:23:27;;;;;;;5.80;5.30;;;21.90;99.90;;;;;;4999207;28;20511;-79
2023/06/12 07:25:54;;;;;;;5.68;5.18;;;22.00;99.90;;;;;;5000897;28;20057;-79
2023/06/12 07:28:22;;;;;;;6.30;5.80;;;22.10;99.90;;;;;;4983863;28;20480;-79
2023/06/12 07:30:49;;;;;;;5.80;5.30;;;22.20;99.90;;;;;;5000097;28;20049;-79
2023/06/12 07:33:16;;;;;;;6.15;5.65;;;22.30;99.90;;;;;;4983854;28;20054;-78
2023/06/12 07:35:43;;;;;;;4.97;4.57;;;22.30;99.90;;;;;;4998789;28;20057;-79
2023/06/12 07:38:10;;;;;;;5.07;4.68;;;22.40;99.90;;;;;;4984531;28;20068;-79
2023/06/12 07:40:36;;;;;;;5.55;5.05;;;22.40;99.90;;;;;;4983053;28;20077;-79
2023/06/12 07:43:04;;;;;;;6.82;6.22;;;22.50;99.90;;;;;;4999746;28;20096;-79
2023/06/12 07:45:34;;;;;;;4.32;3.92;;;22.50;99.90;;;;;;5001341;28;20049;-79
2023/06/12 07:48:00;;;;;;;4.68;4.28;;;22.60;99.90;;;;;;5001897;28;20058;-79
2023/06/12 07:50:27;;;;;;;4.68;4.22;;;22.70;99.90;;;;;;4998258;28;20100;-79
2023/06/12 07:52:54;;;;;;;4.45;4.05;;;22.80;99.90;;;;;;4983558;28;20058;-79
2023/06/12 07:55:21;;;;;;;4.28;3.88;;;22.90;99.90;;;;;;4998452;28;20489;-79
2023/06/12 07:57:49;;;;;;;3.85;3.55;;;22.90;99.90;;;;;;5000524;28;20140;-79
2023/06/12 08:00:17;;;;;;;3.60;3.30;;;22.90;99.90;;;;;;4999732;28;20671;-79
2023/06/12 08:02:44;;;;;;;3.50;3.20;;;22.90;99.90;;;;;;5000993;28;20095;-79
2023/06/12 08:05:11;;;;;;;3.50;3.20;;;23.00;99.90;;;;;;4998171;28;20068;-79
2023/06/12 08:07:39;;;;;;;2.67;2.47;;;23.10;99.90;;;;;;5009339;28;20050;-80
2023/06/12 08:10:07;;;;;;;3.85;3.13;;;23.20;99.90;;;;;;4996729;28;20077;-79
2023/06/12 08:12:34;;;;;;;3.53;3.22;;;23.30;99.90;;;;;;4993450;28;20390;-79
2023/06/12 08:15:02;;;;;;;3.10;2.90;;;23.30;99.90;;;;;;4978332;28;20085;-79
2023/06/12 08:17:29;;;;;;;3.15;2.83;;;23.40;99.90;;;;;;4996274;28;20056;-79
2023/06/12 08:19:57;;;;;;;3.25;2.95;;;23.40;99.90;;;;;;4975925;28;20053;-79
2023/06/12 08:22:24;;;;;;;3.17;2.90;;;23.50;99.90;;;;;;4971629;28;20571;-81
2023/06/12 08:24:51;;;;;;;3.05;2.85;;;23.60;99.90;;;;;;4990538;28;20057;-82
2023/06/12 08:27:18;;;;;;;3.20;2.90;;;23.70;99.90;;;;;;5008761;28;20050;-81
2023/06/12 08:29:45;;;;;;;3.53;3.22;;;23.80;99.90;;;;;;4998302;28;20057;-81
2023/06/12 08:32:13;;;;;;;4.15;3.30;;;23.90;99.90;;;;;;4997360;28;20120;-80
2023/06/12 08:34:40;;;;;;;3.05;2.75;;;23.90;99.90;;;;;;4978732;28;20133;-80
2023/06/12 08:37:07;;;;;;;3.03;2.80;;;23.90;99.90;;;;;;4999204;28;20057;-80
2023/06/12 08:39:34;;;;;;;3.30;3.00;;;24.00;99.90;;;;;;4999201;28;20433;-80
2023/06/12 08:42:11;;;;;;;3.30;3.00;;;24.00;99.90;;;;;;4983126;28;20113;-80
2023/06/12 08:44:38;;;;;;;3.40;3.10;;;24.20;99.90;;;;;;4998663;28;20105;-80
2023/06/12 08:47:05;;;;;;;3.13;2.83;;;24.20;99.90;;;;;;4999850;28;20061;-80
2023/06/12 08:49:32;;;;;;;2.83;2.63;;;24.40;99.90;;;;;;4981535;28;20057;-79
2023/06/12 08:52:00;;;;;;;2.70;2.50;;;24.60;99.90;;;;;;4985363;28;20054;-80
2023/06/12 08:54:28;;;;;;;2.72;2.53;;;24.80;99.90;;;;;;5001259;28;20806;-80
2023/06/12 08:56:56;;;;;;;2.92;2.55;;;25.00;99.90;;;;;;4986095;28;20072;-80
2023/06/12 08:59:23;;;;;;;2.70;2.50;;;25.10;99.90;;;;;;5001785;28;20054;-80
2023/06/12 09:01:53;;;;;;;3.70;3.40;;;25.20;99.90;;;;;;4999463;28;20064;-80
2023/06/12 09:04:44;;;;;;;3.45;3.15;;;25.20;99.90;;;;;;4997601;28;20566;-80
2023/06/12 09:07:12;;;;;;;3.40;3.10;;;25.20;99.90;;;;;;4983960;28;20133;-80
2023/06/12 09:09:39;;;;;;;2.55;2.35;;;25.40;99.90;;;;;;4965624;28;20347;-80
2023/06/12 09:12:10;;;;;;;2.83;2.63;;;25.60;99.90;;;;;;4984650;28;20547;-80
2023/06/12 09:14:37;;;;;;;3.08;2.78;;;25.80;99.90;;;;;;4986178;28;20374;-79
2023/06/12 09:17:06;;;;;;;2.70;2.50;;;25.80;99.90;;;;;;5007650;28;20050;-80
2023/06/12 09:19:42;;;;;;;2.58;2.38;;;25.90;99.90;;;;;;5004072;28;20077;-79
2023/06/12 09:22:10;;;;;;;2.78;2.58;;;25.90;99.90;;;;;;5003155;28;20141;-79
2023/06/12 09:24:37;;;;;;;2.50;2.30;;;26.10;99.90;;;;;;5001407;28;20050;-79
2023/06/12 09:27:04;;;;;;;2.58;2.38;;;26.20;99.90;;;;;;5002100;28;20046;-79
2023/06/12 09:29:39;;;;;;;2.58;2.38;;;26.30;99.90;;;;;;5004421;28;20050;-80
2023/06/12 09:32:07;;;;;;;2.45;2.25;;;26.20;99.90;;;;;;5006070;28;20053;-79
2023/06/12 09:34:34;;;;;;;2.53;2.33;;;26.30;99.90;;;;;;5004805;28;20053;-79
2023/06/12 09:37:05;;;;;;;3.40;3.10;;;26.40;99.90;;;;;;4989106;28;20100;-80
2023/06/12 09:39:33;;;;;;;2.70;2.50;;;26.30;99.90;;;;;;4989286;28;20052;-80
2023/06/12 09:42:01;;;;;;;3.22;2.97;;;26.40;99.90;;;;;;5005430;28;20053;-79
2023/06/12 09:44:29;;;;;;;3.20;2.90;;;26.50;99.90;;;;;;5004603;28;20045;-79
2023/06/12 09:47:01;;;;;;;2.38;2.17;;;26.60;99.90;;;;;;5005576;28;20046;-79
2023/06/12 09:49:27;;;;;;;2.42;2.22;;;26.60;99.90;;;;;;5005242;28;20057;-79
2023/06/12 09:51:54;;;;;;;2.83;2.35;;;26.90;99.90;;;;;;5005538;28;20053;-80
2023/06/12 09:54:22;;;;;;;2.60;2.40;;;27.00;99.90;;;;;;5004891;28;20057;-79
2023/06/12 09:56:52;;;;;;;2.20;2.00;;;27.10;99.90;;;;;;5005659;28;20050;-80
2023/06/12 09:59:19;;;;;;;2.20;2.00;;;27.20;99.90;;;;;;5005008;28;20514;-79
2023/06/12 10:02:00;;;;;;;2.47;2.28;;;27.30;99.90;;;;;;5005534;28;20646;-80
2023/06/12 10:04:34;;;;;;;2.30;2.10;;;27.30;99.90;;;;;;4990232;28;20136;-79
2023/06/12 10:07:08;;;;;;;1.70;1.60;;;27.30;99.90;;;;;;5005072;28;20184;-80
2023/06/12 10:09:35;;;;;;;1.73;1.63;;;27.40;99.90;;;;;;5004450;28;20615;-80
2023/06/12 10:12:02;;;;;;;1.85;1.75;;;27.50;99.90;;;;;;4988846;28;20119;-80
2023/06/12 10:14:29;;;;;;;2.10;1.90;;;27.70;99.90;;;;;;5003663;28;20508;-80
2023/06/12 10:16:56;;;;;;;1.92;1.75;;;27.70;99.90;;;;;;5004201;28;20054;-80
2023/06/12 10:19:24;;;;;;;1.90;1.70;;;27.80;99.60;;;;;;4988207;28;20551;-80
2023/06/12 10:21:54;;;;;;;2.17;1.98;;;28.10;99.50;;;;;;5003948;28;20134;-80
2023/06/12 10:24:21;;;;;;;1.98;1.77;;;28.20;98.90;;;;;;5000839;28;20218;-79
2023/06/12 10:26:52;;;;;;;2.13;1.92;;;28.20;98.80;;;;;;5001032;28;20140;-79
2023/06/12 10:29:29;;;;;;;2.30;2.10;;;28.30;98.40;;;;;;5003792;28;20081;-79
2023/06/12 10:32:04;;;;;;;1.95;1.70;;;28.30;98.50;;;;;;5004767;28;20192;-79
2023/06/12 10:34:41;;;;;;;1.38;1.27;;;28.40;98.30;;;;;;4987857;28;20064;-79
2023/06/12 10:37:30;;;;;;;1.60;1.50;;;28.50;98.00;;;;;;5003914;28;20061;-79
2023/06/12 10:40:15;;;;;;;1.65;1.55;;;28.60;98.10;;;;;;5002783;28;20616;-79
2023/06/12 10:42:51;;;;;;;1.95;1.63;;;28.60;98.40;;;;;;5005239;28;20049;-79
2023/06/12 10:45:19;;;;;;;1.65;1.50;;;28.70;98.10;;;;;;5005184;28;20081;-80
2023/06/12 10:48:05;;;;;;;2.00;1.80;;;28.80;97.50;;;;;;5004405;28;20492;-79
2023/06/12 10:50:47;;;;;;;2.00;1.80;;;29.00;97.40;;;;;;4999286;28;20136;-79
2023/06/12 10:53:16;;;;;;;1.55;1.45;;;29.20;97.20;;;;;;4986452;28;20053;-79
2023/06/12 10:55:43;;;;;;;1.70;1.60;;;29.50;96.40;;;;;;5003383;28;20053;-79
2023/06/12 10:58:15;;;;;;;1.65;1.55;;;29.60;96.30;;;;;;4987676;28;20128;-79
2023/06/12 11:00:45;;;;;;;;;;;29.90;96.20;;;;;;5003953;28;20571;-79
2023/06/12 11:03:14;;;;;;;1.45;1.33;;;30.10;94.70;;;;;;5001835;28;19933;-80
2023/06/12 11:05:48;;;;;;;1.60;1.42;;;30.10;94.90;;;;;;5000886;28;20053;-79
2023/06/12 11:08:16;;;;;;;1.48;1.38;;;30.00;95.20;;;;;;5003380;28;20157;-79
2023/06/12 11:10:43;;;;;;;1.48;1.38;;;30.30;95.00;;;;;;5004132;28;20049;-79
2023/06/12 11:13:10;;;;;;;1.60;1.48;;;30.40;94.40;;;;;;5003324;28;20148;-79
2023/06/12 11:15:43;;;;;;;1.40;1.30;;;30.60;94.70;;;;;;5003892;28;20134;-79
2023/06/12 11:18:11;;;;;;;1.90;1.63;;;30.60;94.20;;;;;;5003566;28;20053;-79
2023/06/12 11:20:37;;;;;;;1.70;1.60;;;30.60;94.20;;;;;;5002986;28;20054;-80
2023/06/12 11:23:05;;;;;;;1.35;1.23;;;30.70;94.40;;;;;;5002253;28;20049;-80
2023/06/12 11:25:41;;;;;;;1.90;1.60;;;30.70;94.00;;;;;;4999911;28;20485;-80
2023/06/12 11:28:08;;;;;;;1.50;1.40;;;30.80;94.00;;;;;;5000851;28;20112;-80
2023/06/12 11:30:35;;;;;;;1.60;1.50;;;30.90;93.50;;;;;;5002766;28;20073;-80
2023/06/12 11:33:12;;;;;;;1.65;1.25;;;30.90;93.80;;;;;;5005308;28;20053;-80
2023/06/12 11:35:40;;;;;;;1.98;1.77;;;30.80;93.30;;;;;;5002520;28;20084;-80
2023/06/12 11:38:14;;;;;;;2.05;1.75;;;30.80;93.70;;;;;;5003173;28;20045;-80
2023/06/12 11:40:44;;;;;;;1.50;1.30;;;30.80;93.50;;;;;;5003236;28;20050;-80
2023/06/12 11:43:11;;;;;;;1.25;1.15;;;30.90;93.40;;;;;;5003237;28;20056;-80
2023/06/12 11:45:43;;;;;;;1.55;1.45;;;30.90;93.50;;;;;;5003613;28;20111;-80
2023/06/12 11:48:14;;;;;;;1.60;1.48;;;30.90;93.50;;;;;;5004262;28;20062;-79
2023/06/12 11:50:45;;;;;;;2.10;1.58;;;31.00;93.70;;;;;;4987036;28;20111;-79
2023/06/12 11:53:12;;;;;;;1.60;1.50;;;31.20;93.00;;;;;;5003686;28;20050;-80
2023/06/12 11:55:39;;;;;;;1.52;1.35;;;31.30;93.00;;;;;;5002549;28;20096;-81
2023/06/12 11:58:09;;;;;;;1.58;1.38;;;31.40;93.00;;;;;;5010341;28;20140;-80
2023/06/12 12:00:41;;;;;;;1.48;1.38;;;31.40;93.10;;;;;;5001468;28;20069;-80
2023/06/12 12:03:09;;;;;;;1.90;1.60;;;31.40;92.80;;;;;;5004232;28;20508;-80
2023/06/12 12:05:37;;;;;;;1.73;1.63;;;31.30;93.80;;;;;;4992541;28;20080;-81
2023/06/12 12:08:05;;;;;;;2.20;1.60;;;31.10;95.00;;;;;;4995796;28;20065;-80
2023/06/12 12:10:33;;;;;;;1.45;1.35;;;30.70;97.50;;;;;;5007360;28;20049;-82
2023/06/12 12:13:01;;;;;;;1.38;1.20;;;30.10;97.30;;;;;;5000194;28;20046;-80
2023/06/12 12:15:33;;;;;;;1.90;1.52;;;29.50;99.80;;;;;;5007024;28;20053;-81
2023/06/12 12:18:00;;;;;;;;;;;28.90;99.90;;;;;;5017260;28;20053;-82
2023/06/12 12:20:28;;;;;;;3.60;2.60;;;28.40;99.90;;;;;;4997771;28;20430;-79
2023/06/12 12:22:57;;;;;;;2.95;2.67;;;27.90;99.90;;;;;;5000484;28;20071;-80
2023/06/12 12:25:28;;;;;;;2.45;2.25;;;27.30;99.90;;;;;;4999629;28;20050;-80
2023/06/12 12:27:55;;;;;;;2.80;2.60;;;27.00;99.90;;;;;;4999217;28;20129;-80
2023/06/12 12:30:22;;;;;;;3.15;2.85;;;26.90;99.90;;;;;;5001985;28;20050;-81
2023/06/12 12:32:51;;;;;;;3.20;2.90;;;26.90;99.90;;;;;;5002625;28;20481;-80
2023/06/12 12:35:18;;;;;;;2.35;2.15;;;27.00;99.90;;;;;;4970269;28;20045;-80
2023/06/12 12:37:45;;;;;;;1.98;1.77;;;27.20;99.90;;;;;;4975361;28;20145;-81
2023/06/12 12:40:13;;;;;;;2.40;2.20;;;27.70;99.90;;;;;;4966783;28;20050;-81
2023/06/12 12:42:47;;;;;;;2.50;2.30;;;28.20;99.90;;;;;;4983471;28;21087;-81
2023/06/12 12:45:17;;;;;;;2.30;2.10;;;29.00;99.90;;;;;;4977843;28;20054;-81
2023/06/12 12:47:51;;;;;;;2.55;2.35;;;29.90;99.90;;;;;;4985675;28;20065;-81
2023/06/12 12:50:19;;;;;;;2.15;1.95;;;30.60;99.90;;;;;;4979592;28;20133;-81
2023/06/12 12:52:53;;;;;;;2.17;1.98;;;31.40;99.90;;;;;;5000196;28;20101;-82
2023/06/12 12:55:20;;;;;;;2.28;2.08;;;31.90;99.90;;;;;;4988497;28;20109;-82
2023/06/12 12:57:47;;;;;;;2.35;2.15;;;32.00;99.90;;;;;;5006358;28;20120;-81
2023/06/12 13:00:17;;;;;;;2.53;2.33;;;32.10;99.90;;;;;;5006943;28;20054;-81